createdAt,value
2023-03-08T00:01:36.265Z,77.38
2023-03-08T00:04:02.631Z,77.90
2023-03-08T00:06:29.368Z,77.26
2023-03-08T00:08:59.651Z,76.70
2023-03-08T00:11:26.595Z,77.18
2023-03-08T00:13:52.889Z,77.12
2023-03-08T00:16:19.238Z,77.84
2023-03-08T00:18:45.602Z,77.76
2023-03-08T00:21:13.250Z,77.91
2023-03-08T00:23:39.862Z,77.83
2023-03-08T00:26:06.249Z,78.76
2023-03-08T00:28:32.600Z,78.21
2023-03-08T00:31:17.192Z,78.51
2023-03-08T00:33:43.566Z,78.16
2023-03-08T00:36:13.270Z,78.29
2023-03-08T00:38:39.609Z,77.72
2023-03-08T00:41:06.247Z,77.14
2023-03-08T00:43:32.635Z,77.91
2023-03-08T00:45:58.967Z,78.19
2023-03-08T00:48:25.305Z,77.27
2023-03-08T00:50:51.683Z,77.32
2023-03-08T00:53:18.219Z,76.97
2023-03-08T00:55:51.515Z,77.38
2023-03-08T00:58:17.845Z,76.83
2023-03-08T01:00:44.675Z,77.26
2023-03-08T01:03:11.033Z,77.55
2023-03-08T01:05:56.578Z,78.40
2023-03-08T01:08:24.172Z,77.24
2023-03-08T01:10:51.898Z,77.59
2023-03-08T01:13:18.963Z,77.98
2023-03-08T01:15:45.580Z,78.67
2023-03-08T01:18:11.979Z,77.65
2023-03-08T01:20:38.278Z,78.07
2023-03-08T01:23:04.884Z,78.94
2023-03-08T01:25:31.446Z,78.51
2023-03-08T01:27:58.106Z,77.48
2023-03-08T01:30:24.608Z,77.01
2023-03-08T01:32:51.006Z,77.81
2023-03-08T01:35:17.704Z,77.38
2023-03-08T01:37:43.984Z,78.69
2023-03-08T01:40:12.202Z,77.40
2023-03-08T01:42:38.782Z,77.59
2023-03-08T01:45:06.319Z,77.11
2023-03-08T01:47:33.312Z,78.11
2023-03-08T01:50:01.517Z,78.77
2023-03-08T01:52:37.149Z,78.27
2023-03-08T01:55:07.720Z,77.58
2023-03-08T01:57:49.553Z,77.98
2023-03-08T02:00:21.358Z,77.43
2023-03-08T02:03:07.949Z,78.27
2023-03-08T02:05:37.125Z,79.08
2023-03-08T02:08:03.474Z,78.23
2023-03-08T02:10:29.863Z,78.04
2023-03-08T02:12:56.371Z,79.19
2023-03-08T02:15:22.779Z,77.96
2023-03-08T02:17:49.171Z,78.40
2023-03-08T02:20:21.668Z,79.02
2023-03-08T02:22:51.784Z,78.81
2023-03-08T02:25:19.392Z,78.53
2023-03-08T02:27:45.938Z,78.88
2023-03-08T02:30:14.099Z,77.77
2023-03-08T02:32:40.597Z,78.52
2023-03-08T02:35:07.172Z,78.91
2023-03-08T02:37:33.789Z,78.36
2023-03-08T02:40:00.112Z,77.72
2023-03-08T02:42:26.399Z,77.44
2023-03-08T02:44:53.158Z,78.16
2023-03-08T02:47:22.832Z,78.41
2023-03-08T02:49:49.160Z,78.13
2023-03-08T02:52:15.526Z,77.70
2023-03-08T02:54:41.816Z,77.31
2023-03-08T02:57:08.164Z,76.27
2023-03-08T02:59:34.479Z,76.50
2023-03-08T03:02:00.753Z,75.56
2023-03-08T03:04:30.932Z,76.46
2023-03-08T03:06:57.570Z,75.69
2023-03-08T03:09:23.874Z,76.37
2023-03-08T03:11:50.187Z,75.98
2023-03-08T03:14:16.497Z,76.55
2023-03-08T03:16:42.833Z,76.25
2023-03-08T03:19:09.223Z,76.19
2023-03-08T03:21:35.550Z,75.81
2023-03-08T03:24:01.828Z,76.05
2023-03-08T03:26:28.115Z,76.60
2023-03-08T03:28:58.369Z,75.82
2023-03-08T03:31:25.751Z,74.70
2023-03-08T03:33:52.539Z,75.43
2023-03-08T03:36:20.121Z,75.06
2023-03-08T03:38:46.498Z,74.56
2023-03-08T03:41:17.374Z,74.97
2023-03-08T03:43:43.763Z,74.61
2023-03-08T03:46:14.334Z,75.81
2023-03-08T03:48:40.706Z,74.70
2023-03-08T03:51:08.139Z,75.24
2023-03-08T03:53:35.550Z,74.95
2023-03-08T03:56:06.682Z,75.82
2023-03-08T03:58:33.378Z,75.41
2023-03-08T04:01:00.000Z,75.28
2023-03-08T04:03:26.852Z,75.03
2023-03-08T04:05:53.357Z,75.08
2023-03-08T04:08:19.642Z,75.42
2023-03-08T04:10:45.963Z,74.75
2023-03-08T04:13:12.428Z,75.19
2023-03-08T04:15:38.756Z,75.73
2023-03-08T04:18:05.076Z,74.81
2023-03-08T04:20:31.369Z,74.99
2023-03-08T04:22:57.664Z,75.74
2023-03-08T04:25:23.966Z,74.38
2023-03-08T04:27:50.271Z,75.38
2023-03-08T04:30:16.614Z,76.09
2023-03-08T04:32:42.959Z,74.64
2023-03-08T04:35:09.392Z,74.78
2023-03-08T04:37:37.010Z,75.15
2023-03-08T04:40:05.805Z,75.43
2023-03-08T04:42:32.098Z,74.94
2023-03-08T04:44:58.375Z,75.10
2023-03-08T04:47:24.687Z,75.06
2023-03-08T04:49:50.998Z,74.47
2023-03-08T04:52:17.326Z,74.52
2023-03-08T04:54:43.666Z,75.04
2023-03-08T04:57:09.983Z,74.19
2023-03-08T04:59:36.478Z,74.22
2023-03-08T05:02:03.884Z,74.22
2023-03-08T05:04:30.222Z,73.77
2023-03-08T05:06:56.520Z,74.01
2023-03-08T05:09:22.837Z,75.05
2023-03-08T05:11:49.132Z,73.91
2023-03-08T05:14:15.400Z,73.79
2023-03-08T05:16:41.770Z,73.90
2023-03-08T05:19:08.142Z,74.73
2023-03-08T05:21:34.477Z,74.53
2023-03-08T05:24:00.841Z,74.05
2023-03-08T05:26:28.545Z,74.54
2023-03-08T05:28:54.873Z,74.37
2023-03-08T05:31:21.987Z,74.74
2023-03-08T05:33:50.858Z,74.38
2023-03-08T05:36:17.945Z,74.68
2023-03-08T05:38:44.430Z,74.99
2023-03-08T05:41:17.166Z,74.13
2023-03-08T05:43:43.495Z,73.61
2023-03-08T05:46:14.669Z,74.06
2023-03-08T05:48:41.232Z,74.40
2023-03-08T05:51:08.710Z,74.36
2023-03-08T05:53:35.391Z,74.13
2023-03-08T05:56:09.527Z,73.93
2023-03-08T05:58:36.511Z,74.36
2023-03-08T06:01:10.027Z,74.48
2023-03-08T06:03:36.516Z,73.69
2023-03-08T06:06:02.917Z,73.72
2023-03-08T06:08:29.204Z,74.74
2023-03-08T06:10:55.491Z,75.02
2023-03-08T06:13:21.785Z,75.01
2023-03-08T06:15:48.090Z,74.47
2023-03-08T06:18:14.372Z,74.36
2023-03-08T06:20:40.644Z,74.39
2023-03-08T06:23:06.960Z,74.11
2023-03-08T06:25:33.237Z,74.23
2023-03-08T06:27:59.504Z,73.78
2023-03-08T06:30:25.878Z,74.09
2023-03-08T06:32:52.159Z,74.09
2023-03-08T06:35:18.441Z,72.86
2023-03-08T06:37:44.760Z,74.34
2023-03-08T06:40:12.870Z,73.66
2023-03-08T06:42:41.840Z,73.00
2023-03-08T06:45:09.016Z,74.27
2023-03-08T06:47:35.375Z,73.18
2023-03-08T06:50:01.750Z,73.48
2023-03-08T06:52:28.182Z,73.13
2023-03-08T06:54:54.475Z,72.47
2023-03-08T06:57:20.777Z,73.23
2023-03-08T06:59:47.178Z,72.61
2023-03-08T07:02:13.472Z,73.06
2023-03-08T07:04:39.844Z,72.39
2023-03-08T07:07:07.844Z,72.50
2023-03-08T07:09:34.233Z,72.44
2023-03-08T07:12:00.512Z,72.23
2023-03-08T07:14:26.825Z,71.58
2023-03-08T07:16:53.118Z,72.04
2023-03-08T07:19:19.477Z,71.77
2023-03-08T07:21:45.758Z,71.85
2023-03-08T07:24:12.060Z,71.27
2023-03-08T07:26:38.564Z,71.85
2023-03-08T07:29:05.372Z,71.88
2023-03-08T07:31:32.448Z,72.50
2023-03-08T07:33:58.739Z,72.08
2023-03-08T07:36:25.086Z,72.11
2023-03-08T07:38:51.521Z,72.16
2023-03-08T07:41:17.929Z,72.16
2023-03-08T07:43:44.428Z,72.12
2023-03-08T07:46:10.794Z,71.23
2023-03-08T07:48:37.076Z,71.96
2023-03-08T07:51:09.478Z,71.40
2023-03-08T07:53:36.635Z,71.57
2023-03-08T07:56:03.245Z,70.96
2023-03-08T07:58:29.719Z,71.20
2023-03-08T08:00:56.039Z,70.79
2023-03-08T08:03:22.509Z,70.20
2023-03-08T08:05:48.854Z,69.49
2023-03-08T08:08:15.186Z,71.30
2023-03-08T08:10:41.826Z,70.26
2023-03-08T08:13:08.448Z,70.52
2023-03-08T08:15:34.891Z,70.25
2023-03-08T08:18:01.220Z,70.11
2023-03-08T08:20:27.802Z,69.93
2023-03-08T08:22:54.313Z,70.41
2023-03-08T08:25:21.020Z,69.36
2023-03-08T08:27:49.522Z,68.57
2023-03-08T08:30:15.882Z,69.31
2023-03-08T08:32:42.230Z,69.58
2023-03-08T08:35:08.834Z,67.96
2023-03-08T08:37:35.151Z,68.67
2023-03-08T08:40:01.546Z,67.91
2023-03-08T08:42:27.907Z,68.21
2023-03-08T08:44:54.534Z,67.69
2023-03-08T08:47:21.048Z,67.83
2023-03-08T08:49:47.388Z,67.73
2023-03-08T08:52:13.699Z,66.92
2023-03-08T08:54:40.190Z,65.89
2023-03-08T08:57:06.958Z,65.04
2023-03-08T08:59:33.516Z,64.49
2023-03-08T09:01:59.866Z,65.88
2023-03-08T09:04:26.303Z,65.32
2023-03-08T09:06:53.537Z,64.84
2023-03-08T09:09:20.254Z,63.40
2023-03-08T09:11:55.021Z,63.59
2023-03-08T09:14:22.070Z,63.67
2023-03-08T09:16:48.457Z,63.62
2023-03-08T09:19:15.461Z,64.17
2023-03-08T09:21:41.838Z,64.37
2023-03-08T09:24:10.339Z,64.38
2023-03-08T09:26:36.689Z,64.58
2023-03-08T09:29:05.340Z,64.51
2023-03-08T09:31:32.325Z,64.62
2023-03-08T09:33:59.953Z,64.73
2023-03-08T09:36:28.490Z,64.55
2023-03-08T09:38:54.842Z,64.95
2023-03-08T09:41:27.244Z,63.62
2023-03-08T09:43:56.533Z,64.19
2023-03-08T09:46:27.296Z,64.77
2023-03-08T09:48:54.578Z,64.34
2023-03-08T09:51:22.952Z,63.72
2023-03-08T09:53:54.587Z,64.42
2023-03-08T09:56:29.429Z,64.71
2023-03-08T09:58:59.567Z,64.48
2023-03-08T10:01:36.204Z,65.55
2023-03-08T10:04:02.572Z,64.91
2023-03-08T10:06:34.233Z,64.65
2023-03-08T10:09:12.247Z,65.22
2023-03-08T10:11:44.923Z,64.68
2023-03-08T10:14:23.679Z,64.99
2023-03-08T10:16:52.388Z,63.73
2023-03-08T10:19:22.136Z,63.74
2023-03-08T10:21:48.963Z,63.63
2023-03-08T10:24:15.255Z,62.87
2023-03-08T10:26:43.193Z,64.40
2023-03-08T10:29:13.423Z,63.13
2023-03-08T10:31:40.038Z,64.08
2023-03-08T10:34:12.908Z,64.13
2023-03-08T10:36:51.500Z,63.68
2023-03-08T10:39:18.064Z,62.53
2023-03-08T10:41:53.056Z,64.49
2023-03-08T10:44:40.060Z,63.31
2023-03-08T10:47:33.103Z,62.81
2023-03-08T10:50:05.312Z,62.36
2023-03-08T10:52:31.647Z,61.58
2023-03-08T10:55:05.824Z,61.99
2023-03-08T10:57:33.023Z,61.29
2023-03-08T11:00:07.564Z,59.89
2023-03-08T11:02:33.876Z,60.53
2023-03-08T11:05:00.257Z,60.80
2023-03-08T11:07:29.070Z,60.56
2023-03-08T11:10:15.832Z,60.46
2023-03-08T11:12:42.559Z,60.68
2023-03-08T11:15:13.134Z,59.88
2023-03-08T11:17:41.155Z,59.85
2023-03-08T11:20:19.884Z,59.79
2023-03-08T11:22:54.995Z,60.74
2023-03-08T11:25:29.532Z,60.50
2023-03-08T11:28:02.247Z,59.84
2023-03-08T11:30:28.585Z,59.76
2023-03-08T11:33:04.809Z,60.15
2023-03-08T11:35:51.110Z,60.55
2023-03-08T11:38:19.317Z,61.53
2023-03-08T11:41:00.582Z,61.42
2023-03-08T11:43:26.914Z,59.86
2023-03-08T11:46:11.986Z,59.91
2023-03-08T11:48:41.407Z,59.82
2023-03-08T11:51:10.828Z,60.51
2023-03-08T11:53:44.071Z,59.37
2023-03-08T11:56:18.951Z,59.05
2023-03-08T11:59:11.619Z,60.40
2023-03-08T12:01:41.636Z,61.49
2023-03-08T12:04:11.805Z,61.55
2023-03-08T12:06:38.272Z,60.92
2023-03-08T12:09:07.914Z,60.43
2023-03-08T12:11:40.553Z,60.84
2023-03-08T12:14:09.868Z,60.49
2023-03-08T12:16:40.668Z,59.47
2023-03-08T12:19:19.348Z,60.17
2023-03-08T12:21:52.360Z,60.03
2023-03-08T12:24:18.644Z,60.47
2023-03-08T12:26:52.351Z,60.70
2023-03-08T12:29:25.450Z,60.51
2023-03-08T12:31:52.291Z,58.76
2023-03-08T12:34:27.343Z,58.82
2023-03-08T12:36:54.213Z,58.37
2023-03-08T12:39:26.782Z,59.01
2023-03-08T12:41:57.403Z,60.25
2023-03-08T12:44:24.900Z,59.72
2023-03-08T12:47:03.005Z,58.91
2023-03-08T12:49:35.667Z,58.94
2023-03-08T12:52:04.091Z,58.58
2023-03-08T12:54:33.634Z,58.99
2023-03-08T12:57:00.399Z,59.22
2023-03-08T12:59:29.395Z,57.95
2023-03-08T13:01:55.656Z,59.86
2023-03-08T13:04:39.633Z,59.25
2023-03-08T13:07:18.731Z,57.61
2023-03-08T13:09:51.102Z,58.28
2023-03-08T13:12:17.617Z,58.29
2023-03-08T13:14:58.517Z,57.22
2023-03-08T13:17:27.807Z,57.57
2023-03-08T13:19:54.588Z,59.64
2023-03-08T13:22:25.172Z,58.41
2023-03-08T13:24:56.750Z,58.52
2023-03-08T13:27:41.988Z,58.35
2023-03-08T13:30:23.733Z,59.50
2023-03-08T13:32:50.185Z,58.86
2023-03-08T13:35:17.755Z,58.40
2023-03-08T13:37:51.469Z,57.40
2023-03-08T13:40:19.412Z,58.53
2023-03-08T13:43:02.759Z,58.57
2023-03-08T13:45:29.268Z,58.18
2023-03-08T13:47:57.101Z,59.42
2023-03-08T13:50:29.465Z,59.40
2023-03-08T13:52:56.058Z,59.08
2023-03-08T13:55:32.786Z,59.24
2023-03-08T13:57:59.488Z,60.44
2023-03-08T14:00:25.933Z,60.07
2023-03-08T14:02:52.574Z,59.75
2023-03-08T14:05:21.056Z,59.95
2023-03-08T14:07:55.725Z,59.20
2023-03-08T14:10:27.294Z,59.79
2023-03-08T14:12:53.883Z,58.72
2023-03-08T14:15:21.582Z,59.08
2023-03-08T14:17:49.566Z,59.41
2023-03-08T14:20:19.509Z,59.10
2023-03-08T14:22:49.792Z,59.71
2023-03-08T14:25:30.006Z,59.12
2023-03-08T14:27:56.841Z,58.76
2023-03-08T14:30:27.557Z,58.20
2023-03-08T14:33:28.348Z,57.73
2023-03-08T14:36:00.177Z,58.65
2023-03-08T14:38:31.410Z,59.28
2023-03-08T14:41:00.500Z,58.71
2023-03-08T14:43:27.330Z,58.09
2023-03-08T14:45:59.392Z,58.07
2023-03-08T14:48:29.130Z,57.55
2023-03-08T14:51:02.041Z,58.60
2023-03-08T14:53:29.354Z,57.23
2023-03-08T14:55:56.444Z,57.40
2023-03-08T14:58:25.400Z,58.12
2023-03-08T15:00:52.865Z,58.21
2023-03-08T15:03:19.256Z,56.80
2023-03-08T15:05:48.541Z,57.82
2023-03-08T15:08:16.472Z,57.19
2023-03-08T15:10:43.487Z,57.67
2023-03-08T15:13:13.111Z,57.97
2023-03-08T15:15:39.448Z,57.48
2023-03-08T15:18:05.850Z,57.57
2023-03-08T15:20:32.401Z,57.94
2023-03-08T15:23:00.487Z,57.68
2023-03-08T15:25:45.142Z,57.84
2023-03-08T15:28:13.941Z,57.30
2023-03-08T15:30:40.236Z,58.10
2023-03-08T15:33:06.667Z,57.81
2023-03-08T15:35:33.063Z,57.23
2023-03-08T15:37:59.363Z,57.37
2023-03-08T15:40:28.571Z,58.47
2023-03-08T15:42:55.371Z,57.89
2023-03-08T15:45:22.077Z,61.30
2023-03-08T15:47:58.737Z,61.87
2023-03-08T15:50:25.896Z,62.13
2023-03-08T15:52:52.699Z,63.10
2023-03-08T15:55:19.077Z,64.03
2023-03-08T15:57:45.463Z,63.83
2023-03-08T16:00:12.873Z,64.22
2023-03-08T16:02:40.016Z,64.74
2023-03-08T16:05:07.200Z,65.21
2023-03-08T16:07:33.689Z,65.65
2023-03-08T16:10:00.803Z,66.06
2023-03-08T16:12:27.110Z,66.35
2023-03-08T16:14:57.293Z,66.37
2023-03-08T16:17:25.924Z,67.30
2023-03-08T16:19:52.852Z,66.88
2023-03-08T16:22:19.505Z,67.87
2023-03-08T16:24:45.889Z,68.57
2023-03-08T16:27:12.227Z,68.69
2023-03-08T16:29:38.594Z,68.01
2023-03-08T16:32:05.188Z,68.29
2023-03-08T16:34:31.626Z,68.97
2023-03-08T16:36:58.078Z,68.69
2023-03-08T16:39:25.153Z,69.21
2023-03-08T16:41:51.771Z,69.74
2023-03-08T16:44:22.276Z,70.07
2023-03-08T16:46:48.906Z,68.72
2023-03-08T16:49:15.996Z,70.22
2023-03-08T16:51:43.054Z,69.24
2023-03-08T16:54:13.260Z,70.31
2023-03-08T16:56:40.704Z,71.02
2023-03-08T16:59:07.055Z,71.05
2023-03-08T17:01:34.571Z,71.47
2023-03-08T17:04:01.125Z,71.32
2023-03-08T17:06:28.635Z,71.28
2023-03-08T17:08:55.195Z,70.74
2023-03-08T17:11:23.502Z,71.85
2023-03-08T17:13:51.109Z,71.59
2023-03-08T17:16:18.753Z,70.86
2023-03-08T17:18:45.120Z,71.74
2023-03-08T17:21:11.412Z,71.74
2023-03-08T17:23:37.781Z,71.16
2023-03-08T17:26:08.451Z,71.79
2023-03-08T17:28:35.001Z,72.68
2023-03-08T17:31:01.833Z,72.13
2023-03-08T17:33:28.530Z,72.22
2023-03-08T17:35:56.231Z,72.38
2023-03-08T17:38:23.008Z,72.16
2023-03-08T17:40:49.303Z,73.83
2023-03-08T17:43:15.698Z,73.06
2023-03-08T17:45:41.994Z,73.71
2023-03-08T17:48:10.189Z,74.13
2023-03-08T17:50:36.915Z,73.20
2023-03-08T17:53:03.343Z,73.18
2023-03-08T17:55:29.755Z,73.54
2023-03-08T17:57:56.056Z,73.45
2023-03-08T18:00:22.684Z,72.81
2023-03-08T18:02:49.275Z,72.97
2023-03-08T18:05:15.624Z,73.56
2023-03-08T18:07:42.158Z,73.88
2023-03-08T18:10:10.910Z,73.89
2023-03-08T18:12:37.280Z,74.27
2023-03-08T18:15:04.420Z,74.29
2023-03-08T18:17:30.779Z,74.14
2023-03-08T18:19:57.130Z,74.27
2023-03-08T18:22:23.558Z,74.71
2023-03-08T18:24:49.876Z,74.77
2023-03-08T18:27:16.221Z,74.98
2023-03-08T18:29:42.652Z,74.93
2023-03-08T18:32:10.030Z,76.27
2023-03-08T18:34:37.179Z,75.10
2023-03-08T18:37:03.545Z,75.94
2023-03-08T18:39:29.909Z,74.97
2023-03-08T18:41:57.973Z,76.12
2023-03-08T18:44:24.395Z,75.94
2023-03-08T18:46:50.853Z,75.57
2023-03-08T18:49:17.265Z,76.50
2023-03-08T18:51:43.809Z,75.89
2023-03-08T18:54:11.534Z,76.35
2023-03-08T18:56:37.872Z,75.69
2023-03-08T18:59:05.762Z,75.22
2023-03-08T19:01:32.193Z,74.25
2023-03-08T19:03:59.264Z,75.32
2023-03-08T19:06:25.715Z,75.48
2023-03-08T19:08:52.343Z,75.18
2023-03-08T19:11:19.783Z,73.89
2023-03-08T19:13:47.111Z,74.41
2023-03-08T19:16:18.050Z,74.82
2023-03-08T19:18:44.696Z,74.67
2023-03-08T19:21:21.329Z,74.17
2023-03-08T19:23:48.405Z,75.27
2023-03-08T19:26:36.094Z,75.01
2023-03-08T19:29:03.945Z,75.62
2023-03-08T19:31:30.468Z,75.10
2023-03-08T19:33:57.187Z,74.55
2023-03-08T19:36:23.506Z,75.88
2023-03-08T19:38:50.064Z,75.41
2023-03-08T19:41:16.392Z,76.02
2023-03-08T19:43:42.838Z,75.74
2023-03-08T19:46:09.556Z,75.31
2023-03-08T19:48:36.606Z,75.89
2023-03-08T19:51:03.034Z,74.50
2023-03-08T19:53:29.425Z,75.01
2023-03-08T19:55:56.000Z,75.20
2023-03-08T19:58:22.355Z,74.69
2023-03-08T20:00:49.085Z,74.48
2023-03-08T20:03:16.578Z,74.95
2023-03-08T20:05:47.300Z,75.22
2023-03-08T20:08:14.136Z,75.06
2023-03-08T20:10:40.653Z,75.86
2023-03-08T20:13:07.223Z,75.25
2023-03-08T20:15:33.618Z,75.45
2023-03-08T20:18:00.083Z,75.20
2023-03-08T20:20:26.437Z,75.24
2023-03-08T20:22:52.774Z,74.48
2023-03-08T20:25:19.262Z,74.88
2023-03-08T20:27:45.580Z,74.63
2023-03-08T20:30:12.558Z,74.44
2023-03-08T20:32:39.328Z,73.99
2023-03-08T20:35:06.977Z,74.49
2023-03-08T20:37:33.428Z,74.04
2023-03-08T20:39:59.947Z,74.41
2023-03-08T20:42:26.612Z,74.68
2023-03-08T20:44:53.036Z,74.28
2023-03-08T20:47:19.367Z,74.44
2023-03-08T20:49:45.752Z,75.06
2023-03-08T20:52:12.129Z,74.65
2023-03-08T20:54:38.581Z,75.18
2023-03-08T20:57:05.635Z,75.11
2023-03-08T20:59:32.090Z,75.86
2023-03-08T21:01:58.552Z,75.86
2023-03-08T21:04:26.648Z,75.06
2023-03-08T21:06:53.390Z,75.67
2023-03-08T21:09:20.117Z,75.22
2023-03-08T21:11:46.507Z,75.18
2023-03-08T21:14:12.931Z,76.08
2023-03-08T21:16:39.361Z,75.49
2023-03-08T21:19:06.353Z,76.03
2023-03-08T21:21:39.973Z,75.23
2023-03-08T21:24:08.653Z,75.61
2023-03-08T21:26:35.370Z,74.75
2023-03-08T21:29:03.724Z,75.55
2023-03-08T21:31:32.295Z,76.22
2023-03-08T21:34:00.980Z,75.15
2023-03-08T21:36:27.428Z,74.44
2023-03-08T21:38:54.630Z,74.36
2023-03-08T21:41:25.422Z,75.10
2023-03-08T21:43:52.029Z,75.25
2023-03-08T21:46:18.683Z,75.23
2023-03-08T21:48:45.396Z,75.08
2023-03-08T21:51:11.891Z,75.29
2023-03-08T21:53:38.417Z,76.43
2023-03-08T21:56:08.530Z,76.11
2023-03-08T21:58:35.283Z,75.85
2023-03-08T22:01:02.190Z,76.20
2023-03-08T22:03:30.701Z,75.65
2023-03-08T22:05:57.876Z,75.52
2023-03-08T22:08:26.913Z,75.51
2023-03-08T22:10:55.564Z,75.61
2023-03-08T22:13:21.919Z,74.62
2023-03-08T22:15:48.412Z,74.71
2023-03-08T22:18:14.963Z,75.19
2023-03-08T22:20:41.398Z,76.26
2023-03-08T22:23:07.702Z,75.67
2023-03-08T22:25:34.352Z,75.75
2023-03-08T22:28:00.834Z,75.21
2023-03-08T22:30:27.143Z,74.80
2023-03-08T22:32:54.097Z,75.61
2023-03-08T22:35:22.077Z,74.77
2023-03-08T22:37:48.577Z,74.90
2023-03-08T22:40:15.280Z,75.47
2023-03-08T22:42:41.678Z,75.22
2023-03-08T22:45:08.567Z,75.20
2023-03-08T22:47:34.918Z,74.67
2023-03-08T22:50:01.364Z,74.88
2023-03-08T22:52:27.766Z,75.13
2023-03-08T22:54:54.063Z,75.32
2023-03-08T22:57:20.366Z,75.27
2023-03-08T22:59:46.933Z,75.09
2023-03-08T23:02:13.749Z,74.75
2023-03-08T23:04:40.580Z,75.07
2023-03-08T23:07:07.528Z,75.80
2023-03-08T23:09:33.981Z,76.63
2023-03-08T23:12:02.756Z,76.56
2023-03-08T23:14:29.070Z,76.38
2023-03-08T23:16:55.440Z,76.04
2023-03-08T23:19:21.839Z,76.11
2023-03-08T23:21:48.444Z,76.55
2023-03-08T23:24:15.599Z,77.20
2023-03-08T23:26:43.253Z,76.50
2023-03-08T23:29:09.794Z,76.43
2023-03-08T23:31:37.154Z,76.58
2023-03-08T23:34:04.863Z,76.43
2023-03-08T23:36:32.822Z,76.74
2023-03-08T23:39:01.796Z,75.96
2023-03-08T23:41:28.372Z,76.29
2023-03-08T23:43:58.748Z,76.11
2023-03-08T23:46:25.230Z,76.59
2023-03-08T23:48:54.787Z,76.70
2023-03-08T23:51:21.804Z,76.70
2023-03-08T23:53:49.676Z,76.17
2023-03-08T23:56:17.850Z,76.30
2023-03-08T23:58:44.136Z,76.52
